createdAt,value
2018-02-15T00:01:28.494Z,16.23
2018-02-15T00:03:31.186Z,19.92
2018-02-15T00:05:34.594Z,17.73
2018-02-15T00:07:38.066Z,15.52
2018-02-15T00:09:40.725Z,16.50
2018-02-15T00:11:43.421Z,15.00
2018-02-15T00:13:46.049Z,17.90
2018-02-15T00:15:48.687Z,17.65
2018-02-15T00:17:51.399Z,22.13
2018-02-15T00:19:54.769Z,20.30
2018-02-15T00:21:57.410Z,15.93
2018-02-15T00:24:00.813Z,15.00
2018-02-15T00:26:03.523Z,18.00
2018-02-15T00:28:06.974Z,21.70
2018-02-15T00:30:09.736Z,17.20
2018-02-15T00:32:13.101Z,15.57
2018-02-15T00:34:15.704Z,17.15
2018-02-15T00:36:18.341Z,20.33
2018-02-15T00:38:21.729Z,16.70
2018-02-15T00:40:24.355Z,16.73
2018-02-15T00:42:27.759Z,18.48
2018-02-15T00:44:31.210Z,17.70
2018-02-15T00:46:33.909Z,21.90
2018-02-15T00:48:36.541Z,17.23
2018-02-15T00:50:39.140Z,19.00
2018-02-15T00:52:41.771Z,15.47
2018-02-15T00:54:45.696Z,18.93
2018-02-15T00:56:49.101Z,14.70
2018-02-15T00:58:52.500Z,21.10
2018-02-15T01:00:55.096Z,21.07
2018-02-15T01:02:57.809Z,20.55
2018-02-15T01:05:01.201Z,17.43
2018-02-15T01:07:03.924Z,17.00
2018-02-15T01:09:07.324Z,16.80
2018-02-15T01:11:09.931Z,14.70
2018-02-15T01:13:13.300Z,18.35
2018-02-15T01:15:16.039Z,21.08
2018-02-15T01:17:19.563Z,18.10
2018-02-15T01:19:22.975Z,25.05
2018-02-15T01:21:26.385Z,17.30
2018-02-15T01:23:29.831Z,15.65
2018-02-15T01:25:32.499Z,18.23
2018-02-15T01:27:35.198Z,15.80
2018-02-15T01:29:38.665Z,15.52
2018-02-15T01:31:41.295Z,19.10
2018-02-15T01:33:43.914Z,17.47
2018-02-15T01:35:47.326Z,18.73
2018-02-15T01:37:50.727Z,17.45
2018-02-15T01:39:54.141Z,18.83
2018-02-15T01:41:57.496Z,25.15
2018-02-15T01:44:00.134Z,17.77
2018-02-15T01:46:02.765Z,16.30
2018-02-15T01:48:05.375Z,18.42
2018-02-15T01:50:08.050Z,19.90
2018-02-15T01:52:11.458Z,19.67
2018-02-15T01:54:14.872Z,17.05
2018-02-15T01:56:18.290Z,15.73
2018-02-15T01:58:22.004Z,17.92
2018-02-15T02:00:25.424Z,21.42
2018-02-15T02:02:28.816Z,16.73
2018-02-15T02:04:31.432Z,16.85
2018-02-15T02:06:35.512Z,16.08
2018-02-15T02:08:38.266Z,15.63
2018-02-15T02:10:40.902Z,16.80
2018-02-15T02:12:43.560Z,17.23
2018-02-15T02:14:46.929Z,16.27
2018-02-15T02:16:49.539Z,18.17
2018-02-15T02:18:52.265Z,20.92
2018-02-15T02:20:55.667Z,17.90
2018-02-15T02:22:58.374Z,19.45
2018-02-15T02:25:01.732Z,19.43
2018-02-15T02:27:04.367Z,18.50
2018-02-15T02:29:07.756Z,20.17
2018-02-15T02:31:10.397Z,19.20
2018-02-15T02:33:13.747Z,16.80
2018-02-15T02:35:16.501Z,14.35
2018-02-15T02:37:19.930Z,17.70
2018-02-15T02:39:22.562Z,17.62
2018-02-15T02:41:25.216Z,20.33
2018-02-15T02:43:28.649Z,19.60
2018-02-15T02:45:31.381Z,16.60
2018-02-15T02:47:34.121Z,19.03
2018-02-15T02:49:36.925Z,17.40
2018-02-15T02:51:40.320Z,17.13
2018-02-15T02:53:42.936Z,19.33
2018-02-15T02:55:45.597Z,16.30
2018-02-15T02:57:48.198Z,17.00
2018-02-15T02:59:50.806Z,17.73
2018-02-15T03:01:54.238Z,14.60
2018-02-15T03:03:57.645Z,16.92
2018-02-15T03:06:01.065Z,14.03
2018-02-15T03:08:04.480Z,17.63
2018-02-15T03:10:07.998Z,16.67
2018-02-15T03:12:11.531Z,20.73
2018-02-15T03:14:14.208Z,18.80
2018-02-15T03:16:17.622Z,18.75
2018-02-15T03:18:21.141Z,17.97
2018-02-15T03:20:24.501Z,18.50
2018-02-15T03:22:27.102Z,13.80
2018-02-15T03:24:29.741Z,17.30
2018-02-15T03:26:33.103Z,21.43
2018-02-15T03:28:35.756Z,16.75
2018-02-15T03:30:39.173Z,19.30
2018-02-15T03:32:41.803Z,14.97
2018-02-15T03:34:44.481Z,18.45
2018-02-15T03:36:48.078Z,16.20
2018-02-15T03:38:51.395Z,14.93
2018-02-15T03:40:54.804Z,15.93
2018-02-15T03:42:58.177Z,18.25
2018-02-15T03:45:00.817Z,17.83
2018-02-15T03:47:03.481Z,18.00
2018-02-15T03:49:06.091Z,19.48
2018-02-15T03:51:09.476Z,20.37
2018-02-15T03:53:12.881Z,15.80
2018-02-15T03:55:15.633Z,19.30
2018-02-15T03:57:19.038Z,20.90
2018-02-15T03:59:22.566Z,19.67
2018-02-15T04:01:26.081Z,18.17
2018-02-15T04:03:29.458Z,17.63
2018-02-15T04:05:32.048Z,20.70
2018-02-15T04:07:34.696Z,18.80
2018-02-15T04:09:37.379Z,15.00
2018-02-15T04:11:40.722Z,15.60
2018-02-15T04:13:43.346Z,17.47
2018-02-15T04:15:46.112Z,16.08
2018-02-15T04:17:48.693Z,15.60
2018-02-15T04:19:51.303Z,21.33
2018-02-15T04:21:53.926Z,26.23
2018-02-15T04:23:56.547Z,18.55
2018-02-15T04:25:59.173Z,16.73
2018-02-15T04:28:01.868Z,21.55
2018-02-15T04:30:05.322Z,20.60
2018-02-15T04:32:07.946Z,18.17
2018-02-15T04:34:10.678Z,16.27
2018-02-15T04:36:14.193Z,18.93
2018-02-15T04:38:17.589Z,20.83
2018-02-15T04:40:21.024Z,20.42
2018-02-15T04:42:24.437Z,17.87
2018-02-15T04:44:27.948Z,17.10
2018-02-15T04:46:31.321Z,17.45
2018-02-15T04:48:33.952Z,17.47
2018-02-15T04:50:37.354Z,19.05
2018-02-15T04:52:40.022Z,20.33
2018-02-15T04:54:42.678Z,20.52
2018-02-15T04:56:45.366Z,21.25
2018-02-15T04:58:48.751Z,17.13
2018-02-15T05:00:51.389Z,22.00
2018-02-15T05:02:53.994Z,20.30
2018-02-15T05:04:56.616Z,20.30
2018-02-15T05:06:59.221Z,19.40
2018-02-15T05:09:01.867Z,15.50
2018-02-15T05:11:05.279Z,18.80
2018-02-15T05:13:08.792Z,21.30
2018-02-15T05:15:12.152Z,19.80
2018-02-15T05:17:15.614Z,18.30
2018-02-15T05:19:19.138Z,20.92
2018-02-15T05:21:22.653Z,16.90
2018-02-15T05:23:26.038Z,20.62
2018-02-15T05:25:28.661Z,22.20
2018-02-15T05:27:32.077Z,19.50
2018-02-15T05:29:35.508Z,18.93
2018-02-15T05:31:38.112Z,19.60
2018-02-15T05:33:40.788Z,16.73
2018-02-15T05:35:44.403Z,19.43
2018-02-15T05:37:47.827Z,20.60
2018-02-15T05:39:51.199Z,18.93
2018-02-15T05:41:53.852Z,21.27
2018-02-15T05:43:56.452Z,19.80
2018-02-15T05:45:59.114Z,21.40
2018-02-15T05:48:01.813Z,23.17
2018-02-15T05:50:05.183Z,19.00
2018-02-15T05:52:07.906Z,21.97
2018-02-15T05:54:10.513Z,20.43
2018-02-15T05:56:13.140Z,22.53
2018-02-15T05:58:15.804Z,20.20
2018-02-15T06:00:19.217Z,23.20
2018-02-15T06:02:22.588Z,20.60
2018-02-15T06:04:25.342Z,19.23
2018-02-15T06:06:28.752Z,24.87
2018-02-15T06:08:32.135Z,24.27
2018-02-15T06:10:34.764Z,23.33
2018-02-15T06:12:38.283Z,19.67
2018-02-15T06:14:41.663Z,21.30
2018-02-15T06:16:44.287Z,23.37
2018-02-15T06:18:47.709Z,19.03
2018-02-15T06:20:51.118Z,22.40
2018-02-15T06:22:54.539Z,21.98
2018-02-15T06:24:57.989Z,21.90
2018-02-15T06:27:00.649Z,21.87
2018-02-15T06:29:04.037Z,23.47
2018-02-15T06:31:06.762Z,18.80
2018-02-15T06:33:10.173Z,21.80
2018-02-15T06:35:13.529Z,21.93
2018-02-15T06:37:16.279Z,20.60
2018-02-15T06:39:19.694Z,21.80
2018-02-15T06:41:23.214Z,24.40
2018-02-15T06:43:26.733Z,20.30
2018-02-15T06:45:30.242Z,26.97
2018-02-15T06:47:33.632Z,21.90
2018-02-15T06:49:36.254Z,24.77
2018-02-15T06:51:39.670Z,20.20
2018-02-15T06:53:43.139Z,24.17
2018-02-15T06:55:45.743Z,24.00
2018-02-15T06:57:48.390Z,20.30
2018-02-15T06:59:51.069Z,24.03
2018-02-15T07:01:54.465Z,22.17
2018-02-15T07:03:57.180Z,20.30
2018-02-15T07:06:00.620Z,18.63
2018-02-15T07:08:03.313Z,21.70
2018-02-15T07:10:05.956Z,23.05
2018-02-15T07:12:08.610Z,21.25
2018-02-15T07:14:11.235Z,20.65
2018-02-15T07:16:13.892Z,26.08
2018-02-15T07:18:16.579Z,25.08
2018-02-15T07:20:20.025Z,22.08
2018-02-15T07:22:22.659Z,23.35
2018-02-15T07:24:25.290Z,21.93
2018-02-15T07:26:28.709Z,23.73
2018-02-15T07:28:32.321Z,21.27
2018-02-15T07:30:35.736Z,25.07
2018-02-15T07:32:39.189Z,25.75
2018-02-15T07:34:41.865Z,23.63
2018-02-15T07:36:44.514Z,27.87
2018-02-15T07:38:47.239Z,24.03
2018-02-15T07:40:50.681Z,25.20
2018-02-15T07:42:53.461Z,24.98
2018-02-15T07:44:56.153Z,24.70
2018-02-15T07:46:59.573Z,23.50
2018-02-15T07:49:03.079Z,22.07
2018-02-15T07:51:05.734Z,24.00
2018-02-15T07:53:08.335Z,23.90
2018-02-15T07:55:10.969Z,25.43
2018-02-15T07:57:14.325Z,27.90
2018-02-15T07:59:16.984Z,25.97
2018-02-15T08:01:20.508Z,25.23
2018-02-15T08:03:23.868Z,24.70
2018-02-15T08:05:26.480Z,24.70
2018-02-15T08:07:29.104Z,24.77
2018-02-15T08:09:32.485Z,25.70
2018-02-15T08:11:35.116Z,25.00
2018-02-15T08:13:38.480Z,25.30
2018-02-15T08:15:41.221Z,22.93
2018-02-15T08:17:44.842Z,24.57
2018-02-15T08:19:47.395Z,27.37
2018-02-15T08:21:50.044Z,23.40
2018-02-15T08:23:53.390Z,21.60
2018-02-15T08:25:56.020Z,23.50
2018-02-15T08:27:58.667Z,24.30
2018-02-15T08:30:01.335Z,23.85
2018-02-15T08:32:04.709Z,26.17
2018-02-15T08:34:07.379Z,24.77
2018-02-15T08:36:10.000Z,22.07
2018-02-15T08:38:12.644Z,22.70
2018-02-15T08:40:16.060Z,21.73
2018-02-15T08:42:19.402Z,23.67
2018-02-15T08:44:22.023Z,20.83
2018-02-15T08:46:24.664Z,28.10
2018-02-15T08:48:27.359Z,23.52
2018-02-15T08:50:30.872Z,23.70
2018-02-15T08:52:34.385Z,20.90
2018-02-15T08:54:37.774Z,26.17
2018-02-15T08:56:40.397Z,24.03
2018-02-15T08:58:43.095Z,27.50
2018-02-15T09:00:46.466Z,21.45
2018-02-15T09:02:49.205Z,26.10
2018-02-15T09:04:52.610Z,32.30
2018-02-15T09:06:55.197Z,26.43
2018-02-15T09:08:57.811Z,26.07
2018-02-15T09:11:01.224Z,28.83
2018-02-15T09:13:04.610Z,35.80
2018-02-15T09:15:07.265Z,26.80
2018-02-15T09:17:09.882Z,28.40
2018-02-15T09:19:12.492Z,27.07
2018-02-15T09:21:15.140Z,30.98
2018-02-15T09:23:17.837Z,31.62
2018-02-15T09:25:20.467Z,26.58
2018-02-15T09:27:23.217Z,28.60
2018-02-15T09:29:26.737Z,29.65
2018-02-15T09:31:30.137Z,29.23
2018-02-15T09:33:33.522Z,30.30
2018-02-15T09:35:36.178Z,25.70
2018-02-15T09:37:38.930Z,25.75
2018-02-15T09:39:41.537Z,30.77
2018-02-15T09:41:44.166Z,29.23
2018-02-15T09:43:47.661Z,29.23
2018-02-15T09:45:51.040Z,29.87
2018-02-15T09:47:53.674Z,26.90
2018-02-15T09:49:57.047Z,30.13
2018-02-15T09:52:00.427Z,26.97
2018-02-15T09:54:03.076Z,28.87
2018-02-15T09:56:05.735Z,27.20
2018-02-15T09:58:08.338Z,25.83
2018-02-15T10:00:11.013Z,29.50
2018-02-15T10:02:13.616Z,24.07
2018-02-15T10:04:16.384Z,27.00
2018-02-15T10:06:19.806Z,28.67
2018-02-15T10:08:23.316Z,24.27
2018-02-15T10:10:26.726Z,32.63
2018-02-15T10:12:30.137Z,27.00
2018-02-15T10:14:32.822Z,29.83
2018-02-15T10:16:35.533Z,30.13
2018-02-15T10:18:38.238Z,28.23
2018-02-15T10:20:40.886Z,29.93
2018-02-15T10:22:43.494Z,27.63
2018-02-15T10:24:46.118Z,26.00
2018-02-15T10:26:49.552Z,28.70
2018-02-15T10:28:52.211Z,28.05
2018-02-15T10:30:54.936Z,27.23
2018-02-15T10:32:58.343Z,29.83
2018-02-15T10:35:01.768Z,37.80
2018-02-15T10:37:05.281Z,29.77
2018-02-15T10:39:08.667Z,26.43
2018-02-15T10:41:11.301Z,26.13
2018-02-15T10:43:13.986Z,31.07
2018-02-15T10:45:17.353Z,30.73
2018-02-15T10:49:28.973Z,31.57
2018-02-15T10:51:31.660Z,31.50
2018-02-15T10:53:34.271Z,30.10
2018-02-15T10:55:36.887Z,28.25
2018-02-15T10:57:39.595Z,28.00
2018-02-15T10:59:42.356Z,27.37
2018-02-15T11:01:45.004Z,28.10
2018-02-15T11:03:53.443Z,30.33
2018-02-15T11:05:59.942Z,28.30
2018-02-15T11:08:02.597Z,29.73
2018-02-15T11:10:05.326Z,28.50
2018-02-15T11:12:07.978Z,31.50
2018-02-15T11:14:10.598Z,29.97
2018-02-15T11:16:13.316Z,31.90
2018-02-15T11:18:16.713Z,29.73
2018-02-15T11:20:19.430Z,30.93
2018-02-15T11:22:22.947Z,30.47
2018-02-15T11:24:26.347Z,24.00
2018-02-15T11:26:29.052Z,30.40
2018-02-15T11:28:31.710Z,27.00
2018-02-15T11:30:34.331Z,30.73
2018-02-15T11:32:37.046Z,27.97
2018-02-15T11:34:39.647Z,30.57
2018-02-15T11:36:43.108Z,33.37
2018-02-15T11:38:45.858Z,27.77
2018-02-15T11:40:49.197Z,28.30
2018-02-15T11:42:51.869Z,30.20
2018-02-15T11:44:55.248Z,28.97
2018-02-15T11:46:57.988Z,27.53
2018-02-15T11:49:01.493Z,29.60
2018-02-15T11:51:05.118Z,25.63
2018-02-15T11:53:08.494Z,27.93
2018-02-15T11:55:11.134Z,32.63
2018-02-15T11:57:14.553Z,27.50
2018-02-15T11:59:17.184Z,29.83
2018-02-15T12:01:19.837Z,27.07
2018-02-15T12:03:22.632Z,34.40
2018-02-15T12:05:26.001Z,38.70
2018-02-15T12:07:28.741Z,33.87
2018-02-15T12:09:32.109Z,28.30
2018-02-15T12:11:34.700Z,26.17
2018-02-15T12:13:37.352Z,29.70
2018-02-15T12:15:40.875Z,30.93
2018-02-15T12:17:44.320Z,31.50
2018-02-15T12:19:46.931Z,31.53
2018-02-15T12:21:49.672Z,30.20
2018-02-15T12:23:53.088Z,30.25
2018-02-15T12:25:56.617Z,30.60
2018-02-15T12:27:59.263Z,30.37
2018-02-15T12:30:01.905Z,31.77
2018-02-15T12:32:05.322Z,39.63
2018-02-15T12:34:08.682Z,32.53
2018-02-15T12:36:11.356Z,32.17
2018-02-15T12:38:14.035Z,34.43
2018-02-15T12:40:16.718Z,29.57
2018-02-15T12:42:20.163Z,30.60
2018-02-15T12:44:22.814Z,30.90
2018-02-15T12:46:26.199Z,31.37
2018-02-15T12:48:28.937Z,31.70
2018-02-15T12:50:32.353Z,34.00
2018-02-15T12:52:35.869Z,30.63
2018-02-15T12:54:39.279Z,29.93
2018-02-15T12:56:42.742Z,32.20
2018-02-15T12:58:45.453Z,35.03
2018-02-15T13:00:48.910Z,34.60
2018-02-15T13:02:52.359Z,31.63
2018-02-15T13:04:55.023Z,31.97
2018-02-15T13:06:58.436Z,32.03
2018-02-15T13:09:01.128Z,31.87
2018-02-15T13:11:04.648Z,33.23
2018-02-15T13:13:19.119Z,31.20
2018-02-15T13:15:34.230Z,30.50
2018-02-15T13:17:37.000Z,28.13
2018-02-15T13:19:52.109Z,31.03
2018-02-15T13:21:54.771Z,31.90
2018-02-15T13:23:58.203Z,30.67
2018-02-15T13:26:00.989Z,26.40
2018-02-15T13:28:16.331Z,31.13
2018-02-15T13:30:18.973Z,27.33
2018-02-15T13:32:22.490Z,25.10
2018-02-15T13:34:25.880Z,31.10
2018-02-15T13:36:28.598Z,30.00
2018-02-15T13:38:32.050Z,28.90
2018-02-15T13:40:34.694Z,32.87
2018-02-15T13:42:37.411Z,30.30
2018-02-15T13:44:41.384Z,27.67
2018-02-15T13:46:44.030Z,28.00
2018-02-15T13:48:47.553Z,31.83
2018-02-15T13:50:51.068Z,29.90
2018-02-15T13:52:54.447Z,31.83
2018-02-15T13:54:57.126Z,27.47
2018-02-15T13:56:59.712Z,28.80
2018-02-15T13:59:02.369Z,27.97
2018-02-15T14:01:05.066Z,27.03
2018-02-15T14:03:08.483Z,24.47
2018-02-15T14:05:11.900Z,27.23
2018-02-15T14:07:15.414Z,25.83
2018-02-15T14:09:18.788Z,26.33
2018-02-15T14:11:21.458Z,29.07
2018-02-15T14:13:24.223Z,25.97
2018-02-15T14:15:28.194Z,26.37
2018-02-15T14:17:30.973Z,27.83
2018-02-15T14:19:33.603Z,25.77
2018-02-15T14:21:36.248Z,26.97
2018-02-15T14:23:39.675Z,28.87
2018-02-15T14:25:42.350Z,26.60
2018-02-15T14:27:45.804Z,26.77
2018-02-15T14:29:48.405Z,25.60
2018-02-15T14:31:51.081Z,27.83
2018-02-15T14:33:53.753Z,28.67
2018-02-15T14:35:56.459Z,25.80
2018-02-15T14:37:59.855Z,26.10
2018-02-15T14:40:02.571Z,28.87
2018-02-15T14:42:05.939Z,24.53
2018-02-15T14:44:08.676Z,23.93
2018-02-15T14:46:12.530Z,26.77
2018-02-15T14:48:15.166Z,25.17
2018-02-15T14:50:17.825Z,25.47
2018-02-15T14:52:20.494Z,24.90
2018-02-15T14:54:23.859Z,24.87
2018-02-15T14:56:26.541Z,26.43
2018-02-15T14:58:29.201Z,27.40
2018-02-15T15:00:32.650Z,24.30
2018-02-15T15:02:35.309Z,29.63
2018-02-15T15:04:38.712Z,23.90
2018-02-15T15:06:41.390Z,32.00
2018-02-15T15:08:44.069Z,27.03
2018-02-15T15:10:46.684Z,29.33
2018-02-15T15:12:49.377Z,26.40
2018-02-15T15:14:52.040Z,29.70
2018-02-15T15:16:54.706Z,28.73
2018-02-15T15:18:58.083Z,28.83
2018-02-15T15:21:00.690Z,26.43
2018-02-15T15:23:03.426Z,26.20
2018-02-15T15:25:06.934Z,25.60
2018-02-15T15:27:10.346Z,24.00
2018-02-15T15:29:14.556Z,25.13
2018-02-15T15:31:18.535Z,28.90
2018-02-15T15:33:21.207Z,25.70
2018-02-15T15:35:24.622Z,25.47
2018-02-15T15:37:27.462Z,26.40
2018-02-15T15:39:30.065Z,25.07
2018-02-15T15:41:32.752Z,24.17
2018-02-15T15:43:35.403Z,24.77
2018-02-15T15:45:38.903Z,24.40
2018-02-15T15:47:41.587Z,24.20
2018-02-15T15:49:44.317Z,26.30
2018-02-15T15:51:47.742Z,21.37
2018-02-15T15:53:50.487Z,23.57
2018-02-15T15:55:53.887Z,24.00
2018-02-15T15:57:56.557Z,23.67
2018-02-15T16:00:00.115Z,23.30
2018-02-15T16:02:02.737Z,27.53
2018-02-15T16:04:05.472Z,21.27
2018-02-15T16:06:08.166Z,27.53
2018-02-15T16:08:11.667Z,23.93
2018-02-15T16:10:16.850Z,23.37
2018-02-15T16:12:19.722Z,23.37
2018-02-15T16:14:23.396Z,23.63
2018-02-15T16:16:26.026Z,22.93
2018-02-15T16:18:28.718Z,25.43
2018-02-15T16:20:31.351Z,26.10
2018-02-15T16:22:34.303Z,27.27
2018-02-15T16:24:37.042Z,28.80
2018-02-15T16:26:40.562Z,26.90
2018-02-15T16:28:44.070Z,26.20
2018-02-15T16:30:47.465Z,27.27
2018-02-15T16:32:50.182Z,25.27
2018-02-15T16:34:53.612Z,23.23
2018-02-15T16:36:56.397Z,24.33
2018-02-15T16:38:59.906Z,26.77
2018-02-15T16:41:02.612Z,27.37
2018-02-15T16:43:06.053Z,24.43
2018-02-15T16:45:08.758Z,31.10
2018-02-15T16:47:11.416Z,31.30
2018-02-15T16:49:14.815Z,31.53
2018-02-15T16:51:17.476Z,28.73
2018-02-15T16:53:20.238Z,25.13
2018-02-15T16:55:22.849Z,24.67
2018-02-15T16:57:25.517Z,28.97
2018-02-15T16:59:28.942Z,31.53
2018-02-15T17:01:32.351Z,30.80
2018-02-15T17:03:35.868Z,34.20
2018-02-15T17:05:39.282Z,31.00
2018-02-15T17:07:42.734Z,31.77
2018-02-15T17:09:45.351Z,29.10
2018-02-15T17:11:47.975Z,30.00
2018-02-15T17:13:50.791Z,33.40
2018-02-15T17:15:54.194Z,28.77
2018-02-15T17:17:56.852Z,35.40
2018-02-15T17:19:59.523Z,27.10
2018-02-15T17:22:02.198Z,28.93
2018-02-15T17:24:05.708Z,32.80
2018-02-15T17:26:08.422Z,33.57
2018-02-15T17:28:11.926Z,39.80
2018-02-15T17:30:15.366Z,37.70
2018-02-15T17:32:18.020Z,38.00
2018-02-15T17:34:20.635Z,37.73
2018-02-15T17:36:24.067Z,35.50
2018-02-15T17:38:26.721Z,33.70
2018-02-15T17:40:29.540Z,38.90
2018-02-15T17:42:32.393Z,35.27
2018-02-15T17:44:35.054Z,39.43
2018-02-15T17:46:38.452Z,40.53
2018-02-15T17:48:41.903Z,37.20
2018-02-15T17:50:44.536Z,39.83
2018-02-15T17:52:47.209Z,49.63
2018-02-15T17:54:49.871Z,69.13
2018-02-15T17:56:52.558Z,50.23
2018-02-15T17:58:57.279Z,40.40
2018-02-15T18:00:59.934Z,39.70
2018-02-15T18:03:02.579Z,43.93
2018-02-15T18:05:05.353Z,40.43
2018-02-15T18:07:08.008Z,42.00
2018-02-15T18:09:10.661Z,45.60
2018-02-15T18:11:13.288Z,52.97
2018-02-15T18:13:16.713Z,47.17
2018-02-15T18:15:19.353Z,45.10
2018-02-15T18:17:22.102Z,44.87
2018-02-15T18:19:25.617Z,45.03
2018-02-15T18:21:29.124Z,52.20
2018-02-15T18:23:31.789Z,47.57
2018-02-15T18:25:34.434Z,45.40
2018-02-15T18:27:37.118Z,46.70
2018-02-15T18:29:41.772Z,57.20
2018-02-15T18:31:44.451Z,48.87
2018-02-15T18:33:47.867Z,56.67
2018-02-15T18:35:51.386Z,51.23
2018-02-15T18:37:54.793Z,56.30
2018-02-15T18:39:57.454Z,60.00
2018-02-15T18:42:00.173Z,53.70
2018-02-15T18:44:02.897Z,62.50
2018-02-15T18:46:06.316Z,56.77
2018-02-15T18:48:08.982Z,53.23
2018-02-15T18:50:11.808Z,56.57
2018-02-15T18:52:15.242Z,55.30
2018-02-15T18:54:17.872Z,56.07
2018-02-15T18:56:20.533Z,64.87
2018-02-15T18:58:23.189Z,63.93
2018-02-15T19:00:25.814Z,50.80
2018-02-15T19:02:29.218Z,65.40
2018-02-15T19:04:32.635Z,60.20
2018-02-15T19:06:36.043Z,53.13
2018-02-15T19:08:39.573Z,62.40
2018-02-15T19:10:43.020Z,53.80
2018-02-15T19:12:45.673Z,54.77
2018-02-15T19:14:49.157Z,75.43
2018-02-15T19:16:51.923Z,133.47
2018-02-15T19:18:54.592Z,62.67
2018-02-15T19:20:57.977Z,72.80
2018-02-15T19:23:00.699Z,68.43
2018-02-15T19:25:04.161Z,67.53
2018-02-15T19:27:06.788Z,80.57
2018-02-15T19:29:09.506Z,69.60
2018-02-15T19:31:12.952Z,65.67
2018-02-15T19:33:15.618Z,85.50
2018-02-15T19:35:19.012Z,72.67
2018-02-15T19:37:21.743Z,70.40
2018-02-15T19:39:25.204Z,63.10
2018-02-15T19:41:27.958Z,64.17
2018-02-15T19:43:30.652Z,66.73
2018-02-15T19:45:34.111Z,70.10
2018-02-15T19:47:36.738Z,75.17
2018-02-15T19:49:39.456Z,68.20
2018-02-15T19:51:42.086Z,81.73
2018-02-15T19:53:44.730Z,67.20
2018-02-15T19:55:47.394Z,63.00
2018-02-15T19:57:50.040Z,70.27
2018-02-15T19:59:53.433Z,63.50
2018-02-15T20:01:57.187Z,57.90
2018-02-15T20:03:59.883Z,61.33
2018-02-15T20:06:03.330Z,74.60
2018-02-15T20:08:06.092Z,74.47
2018-02-15T20:10:09.610Z,77.07
2018-02-15T20:12:13.059Z,67.07
2018-02-15T20:14:15.769Z,70.07
2018-02-15T20:16:18.520Z,69.60
2018-02-15T20:18:22.037Z,77.13
2018-02-15T20:20:25.488Z,74.93
2018-02-15T20:22:28.149Z,76.33
2018-02-15T20:24:31.674Z,72.20
2018-02-15T20:26:40.100Z,72.67
2018-02-15T20:28:43.601Z,76.17
2018-02-15T20:30:47.159Z,85.00
2018-02-15T20:32:49.819Z,67.57
2018-02-15T20:34:53.264Z,76.83
2018-02-15T20:36:55.959Z,76.97
2018-02-15T20:39:04.257Z,77.20
2018-02-15T20:41:07.735Z,84.63
2018-02-15T20:43:10.470Z,75.37
2018-02-15T20:45:13.914Z,75.17
2018-02-15T20:47:16.574Z,88.27
2018-02-15T20:49:25.640Z,80.53
2018-02-15T20:51:34.688Z,78.13
2018-02-15T20:53:42.847Z,78.63
2018-02-15T20:55:46.230Z,84.33
2018-02-15T20:57:48.866Z,74.87
2018-02-15T20:59:51.604Z,73.67
2018-02-15T21:01:54.247Z,76.80
2018-02-15T21:03:56.892Z,70.60
2018-02-15T21:06:00.310Z,74.47
2018-02-15T21:08:03.825Z,77.67
2018-02-15T21:10:07.221Z,75.40
2018-02-15T21:12:09.877Z,80.63
2018-02-15T21:14:12.516Z,77.87
2018-02-15T21:16:15.152Z,88.87
2018-02-15T21:18:17.821Z,78.53
2018-02-15T21:20:21.230Z,80.03
2018-02-15T21:22:24.758Z,90.17
2018-02-15T21:24:28.386Z,84.07
2018-02-15T21:26:31.206Z,80.47
2018-02-15T21:28:34.069Z,74.27
2018-02-15T21:30:37.591Z,85.23
2018-02-15T21:32:41.070Z,84.27
2018-02-15T21:34:43.935Z,86.67
2018-02-15T21:36:46.711Z,82.23
2018-02-15T21:38:50.242Z,81.47
2018-02-15T21:40:52.952Z,82.57
2018-02-15T21:42:55.723Z,89.33
2018-02-15T21:44:59.234Z,93.20
2018-02-15T21:47:02.705Z,92.87
2018-02-15T21:49:05.470Z,91.50
2018-02-15T21:51:08.870Z,79.50
2018-02-15T21:53:12.346Z,86.93
2018-02-15T21:55:15.082Z,91.20
2018-02-15T21:57:18.472Z,106.10
2018-02-15T21:59:22.429Z,105.03
2018-02-15T22:01:25.832Z,103.30
2018-02-15T22:03:29.257Z,103.60
2018-02-15T22:05:32.760Z,109.17
2018-02-15T22:07:36.387Z,103.03
2018-02-15T22:09:39.905Z,97.07
2018-02-15T22:11:43.431Z,90.27
2018-02-15T22:13:46.120Z,86.37
2018-02-15T22:15:49.510Z,112.23
2018-02-15T22:17:52.373Z,102.40
2018-02-15T22:19:55.026Z,113.27
2018-02-15T22:21:58.546Z,100.10
2018-02-15T22:24:01.941Z,107.17
2018-02-15T22:26:04.681Z,117.50
2018-02-15T22:28:07.380Z,98.23
2018-02-15T22:30:10.003Z,100.77
2018-02-15T22:32:12.629Z,102.63
2018-02-15T22:34:15.485Z,92.17
2018-02-15T22:36:18.122Z,97.87
2018-02-15T22:38:20.737Z,107.17
2018-02-15T22:40:24.256Z,93.70
2018-02-15T22:42:27.812Z,103.60
2018-02-15T22:44:31.237Z,108.37
2018-02-15T22:46:33.986Z,95.70
2018-02-15T22:48:37.400Z,91.00
2018-02-15T22:50:40.811Z,94.33
2018-02-15T22:52:44.235Z,100.10
2018-02-15T22:54:47.636Z,90.63
2018-02-15T22:56:50.230Z,81.50
2018-02-15T22:58:52.870Z,90.43
2018-02-15T23:00:55.569Z,89.40
2018-02-15T23:02:58.193Z,80.17
2018-02-15T23:05:00.856Z,80.93
2018-02-15T23:07:03.485Z,88.73
2018-02-15T23:09:06.169Z,78.90
2018-02-15T23:11:08.912Z,85.10
2018-02-15T23:13:12.336Z,82.13
2018-02-15T23:15:15.852Z,81.03
2018-02-15T23:17:19.243Z,74.40
2018-02-15T23:19:21.896Z,86.40
2018-02-15T23:21:24.563Z,71.80
2018-02-15T23:23:27.965Z,84.07
2018-02-15T23:25:31.378Z,75.20
2018-02-15T23:27:34.068Z,77.60
2018-02-15T23:29:36.700Z,72.40
2018-02-15T23:31:39.362Z,75.03
2018-02-15T23:33:41.981Z,77.97
2018-02-15T23:35:44.621Z,76.80
2018-02-15T23:37:47.267Z,81.80
2018-02-15T23:39:50.739Z,73.23
2018-02-15T23:41:53.346Z,72.77
2018-02-15T23:43:55.942Z,80.43
2018-02-15T23:45:59.485Z,73.90
2018-02-15T23:48:02.870Z,78.70
2018-02-15T23:50:05.478Z,79.17
2018-02-15T23:52:08.121Z,69.77
2018-02-15T23:54:10.751Z,75.30
2018-02-15T23:56:14.222Z,76.20
2018-02-15T23:58:16.906Z,70.23
